sensor_id;sensor_type;location;lat;lon;timestamp;P1;P2;P0
46094;PMS5003;31832;50.746;-2.716;2024-03-07T00:02:14;40;35;
46094;PMS5003;31832;50.746;-2.716;2024-03-07T00:04:39;37;32;
46094;PMS5003;31832;50.746;-2.716;2024-03-07T00:07:04;35;32;
46094;PMS5003;31832;50.746;-2.716;2024-03-07T00:09:31;32;31;
46094;PMS5003;31832;50.746;-2.716;2024-03-07T00:11:55;31;26;
46094;PMS5003;31832;50.746;-2.716;2024-03-07T00:14:21;32;26;
46094;PMS5003;31832;50.746;-2.716;2024-03-07T00:16:46;27;24;
46094;PMS5003;31832;50.746;-2.716;2024-03-07T00:19:11;29;25;
46094;PMS5003;31832;50.746;-2.716;2024-03-07T00:21:36;31;27;
46094;PMS5003;31832;50.746;-2.716;2024-03-07T00:24:02;31;27;
46094;PMS5003;31832;50.746;-2.716;2024-03-07T00:26:27;32;29;
46094;PMS5003;31832;50.746;-2.716;2024-03-07T00:28:52;30;26;
46094;PMS5003;31832;50.746;-2.716;2024-03-07T00:31:18;33;28;
46094;PMS5003;31832;50.746;-2.716;2024-03-07T00:33:44;31;25;
46094;PMS5003;31832;50.746;-2.716;2024-03-07T00:36:09;25;24;
46094;PMS5003;31832;50.746;-2.716;2024-03-07T00:38:35;24;21;
46094;PMS5003;31832;50.746;-2.716;2024-03-07T00:41:01;22;22;
46094;PMS5003;31832;50.746;-2.716;2024-03-07T00:43:25;29;24;
46094;PMS5003;31832;50.746;-2.716;2024-03-07T00:45:51;21;19;
46094;PMS5003;31832;50.746;-2.716;2024-03-07T00:48:16;26;21;
46094;PMS5003;31832;50.746;-2.716;2024-03-07T00:50:41;27;24;
46094;PMS5003;31832;50.746;-2.716;2024-03-07T00:53:07;17;16;
46094;PMS5003;31832;50.746;-2.716;2024-03-07T00:55:33;27;19;
46094;PMS5003;31832;50.746;-2.716;2024-03-07T00:57:58;22;21;
46094;PMS5003;31832;50.746;-2.716;2024-03-07T01:00:24;21;17;
46094;PMS5003;31832;50.746;-2.716;2024-03-07T01:02:50;21;18;
46094;PMS5003;31832;50.746;-2.716;2024-03-07T01:05:16;24;21;
46094;PMS5003;31832;50.746;-2.716;2024-03-07T01:07:42;21;20;
46094;PMS5003;31832;50.746;-2.716;2024-03-07T01:10:07;23;19;
46094;PMS5003;31832;50.746;-2.716;2024-03-07T01:12:33;22;20;
46094;PMS5003;31832;50.746;-2.716;2024-03-07T01:14:58;21;19;
46094;PMS5003;31832;50.746;-2.716;2024-03-07T01:17:24;23;23;
46094;PMS5003;31832;50.746;-2.716;2024-03-07T01:19:50;27;26;
46094;PMS5003;31832;50.746;-2.716;2024-03-07T01:22:16;30;28;
46094;PMS5003;31832;50.746;-2.716;2024-03-07T01:24:41;34;29;
46094;PMS5003;31832;50.746;-2.716;2024-03-07T01:27:06;31;30;
46094;PMS5003;31832;50.746;-2.716;2024-03-07T01:29:32;25;23;
46094;PMS5003;31832;50.746;-2.716;2024-03-07T01:31:57;31;29;
46094;PMS5003;31832;50.746;-2.716;2024-03-07T01:34:22;26;24;
46094;PMS5003;31832;50.746;-2.716;2024-03-07T01:36:47;27;26;
46094;PMS5003;31832;50.746;-2.716;2024-03-07T01:39:12;27;25;
46094;PMS5003;31832;50.746;-2.716;2024-03-07T01:41:38;31;26;
46094;PMS5003;31832;50.746;-2.716;2024-03-07T01:44:03;32;29;
46094;PMS5003;31832;50.746;-2.716;2024-03-07T01:46:29;33;29;
46094;PMS5003;31832;50.746;-2.716;2024-03-07T01:48:54;29;28;
46094;PMS5003;31832;50.746;-2.716;2024-03-07T01:51:19;27;24;
46094;PMS5003;31832;50.746;-2.716;2024-03-07T01:53:45;27;26;
46094;PMS5003;31832;50.746;-2.716;2024-03-07T01:56:10;30;25;
46094;PMS5003;31832;50.746;-2.716;2024-03-07T01:58:36;35;32;
46094;PMS5003;31832;50.746;-2.716;2024-03-07T02:01:01;39;31;
46094;PMS5003;31832;50.746;-2.716;2024-03-07T02:03:27;30;28;
46094;PMS5003;31832;50.746;-2.716;2024-03-07T02:05:53;37;31;
46094;PMS5003;31832;50.746;-2.716;2024-03-07T02:08:18;37;30;
46094;PMS5003;31832;50.746;-2.716;2024-03-07T02:10:43;30;29;
46094;PMS5003;31832;50.746;-2.716;2024-03-07T02:13:08;32;27;
46094;PMS5003;31832;50.746;-2.716;2024-03-07T02:15:33;34;28;
46094;PMS5003;31832;50.746;-2.716;2024-03-07T02:17:59;30;28;
46094;PMS5003;31832;50.746;-2.716;2024-03-07T02:20:24;33;27;
46094;PMS5003;31832;50.746;-2.716;2024-03-07T02:22:49;32;29;
46094;PMS5003;31832;50.746;-2.716;2024-03-07T02:25:15;33;33;
46094;PMS5003;31832;50.746;-2.716;2024-03-07T02:27:40;32;29;
46094;PMS5003;31832;50.746;-2.716;2024-03-07T02:30:06;35;30;
46094;PMS5003;31832;50.746;-2.716;2024-03-07T02:32:31;41;33;
46094;PMS5003;31832;50.746;-2.716;2024-03-07T02:34:57;33;26;
46094;PMS5003;31832;50.746;-2.716;2024-03-07T02:37:22;38;34;
46094;PMS5003;31832;50.746;-2.716;2024-03-07T02:39:47;35;32;
46094;PMS5003;31832;50.746;-2.716;2024-03-07T02:42:13;34;30;
46094;PMS5003;31832;50.746;-2.716;2024-03-07T02:44:38;38;31;
46094;PMS5003;31832;50.746;-2.716;2024-03-07T02:47:04;36;33;
46094;PMS5003;31832;50.746;-2.716;2024-03-07T02:49:29;42;38;
46094;PMS5003;31832;50.746;-2.716;2024-03-07T02:51:54;34;27;
46094;PMS5003;31832;50.746;-2.716;2024-03-07T02:54:20;45;40;
46094;PMS5003;31832;50.746;-2.716;2024-03-07T02:56:45;44;36;
46094;PMS5003;31832;50.746;-2.716;2024-03-07T02:59:10;36;33;
46094;PMS5003;31832;50.746;-2.716;2024-03-07T03:01:36;36;28;
46094;PMS5003;31832;50.746;-2.716;2024-03-07T03:04:01;43;38;
46094;PMS5003;31832;50.746;-2.716;2024-03-07T03:06:26;45;37;
46094;PMS5003;31832;50.746;-2.716;2024-03-07T03:08:52;39;37;
46094;PMS5003;31832;50.746;-2.716;2024-03-07T03:11:18;43;37;
46094;PMS5003;31832;50.746;-2.716;2024-03-07T03:13:43;41;37;
46094;PMS5003;31832;50.746;-2.716;2024-03-07T03:16:09;42;40;
46094;PMS5003;31832;50.746;-2.716;2024-03-07T03:18:34;37;35;
46094;PMS5003;31832;50.746;-2.716;2024-03-07T03:21:00;36;34;
46094;PMS5003;31832;50.746;-2.716;2024-03-07T03:23:25;40;39;
46094;PMS5003;31832;50.746;-2.716;2024-03-07T03:25:50;45;42;
46094;PMS5003;31832;50.746;-2.716;2024-03-07T03:28:15;45;41;
46094;PMS5003;31832;50.746;-2.716;2024-03-07T03:30:41;37;36;
46094;PMS5003;31832;50.746;-2.716;2024-03-07T03:33:06;41;35;
46094;PMS5003;31832;50.746;-2.716;2024-03-07T03:35:32;37;37;
46094;PMS5003;31832;50.746;-2.716;2024-03-07T03:37:57;46;38;
46094;PMS5003;31832;50.746;-2.716;2024-03-07T03:40:23;40;36;
46094;PMS5003;31832;50.746;-2.716;2024-03-07T03:42:48;40;36;
46094;PMS5003;31832;50.746;-2.716;2024-03-07T03:45:13;40;36;
46094;PMS5003;31832;50.746;-2.716;2024-03-07T03:47:39;41;37;
46094;PMS5003;31832;50.746;-2.716;2024-03-07T03:50:05;41;37;
46094;PMS5003;31832;50.746;-2.716;2024-03-07T03:52:30;44;38;
46094;PMS5003;31832;50.746;-2.716;2024-03-07T03:54:56;40;36;
46094;PMS5003;31832;50.746;-2.716;2024-03-07T03:57:21;46;39;
46094;PMS5003;31832;50.746;-2.716;2024-03-07T03:59:46;46;41;
46094;PMS5003;31832;50.746;-2.716;2024-03-07T04:02:12;51;43;
46094;PMS5003;31832;50.746;-2.716;2024-03-07T04:04:38;42;40;
46094;PMS5003;31832;50.746;-2.716;2024-03-07T04:07:03;47;38;
46094;PMS5003;31832;50.746;-2.716;2024-03-07T04:09:28;50;38;
46094;PMS5003;31832;50.746;-2.716;2024-03-07T04:11:54;49;39;
46094;PMS5003;31832;50.746;-2.716;2024-03-07T04:14:19;52;45;
46094;PMS5003;31832;50.746;-2.716;2024-03-07T04:16:45;52;44;
46094;PMS5003;31832;50.746;-2.716;2024-03-07T04:19:10;50;43;
46094;PMS5003;31832;50.746;-2.716;2024-03-07T04:21:36;47;42;
46094;PMS5003;31832;50.746;-2.716;2024-03-07T04:24:02;50;43;
46094;PMS5003;31832;50.746;-2.716;2024-03-07T04:26:28;50;42;
46094;PMS5003;31832;50.746;-2.716;2024-03-07T04:28:53;44;40;
46094;PMS5003;31832;50.746;-2.716;2024-03-07T04:31:19;46;39;
46094;PMS5003;31832;50.746;-2.716;2024-03-07T04:33:45;55;48;
46094;PMS5003;31832;50.746;-2.716;2024-03-07T04:36:10;54;43;
46094;PMS5003;31832;50.746;-2.716;2024-03-07T04:38:35;40;38;
46094;PMS5003;31832;50.746;-2.716;2024-03-07T04:41:01;54;48;
46094;PMS5003;31832;50.746;-2.716;2024-03-07T04:43:26;48;43;
46094;PMS5003;31832;50.746;-2.716;2024-03-07T04:45:52;48;42;
46094;PMS5003;31832;50.746;-2.716;2024-03-07T04:48:18;47;44;
46094;PMS5003;31832;50.746;-2.716;2024-03-07T04:50:43;50;45;
46094;PMS5003;31832;50.746;-2.716;2024-03-07T04:53:08;41;37;
46094;PMS5003;31832;50.746;-2.716;2024-03-07T04:55:34;45;42;
46094;PMS5003;31832;50.746;-2.716;2024-03-07T04:57:59;49;43;
46094;PMS5003;31832;50.746;-2.716;2024-03-07T05:00:25;48;42;
46094;PMS5003;31832;50.746;-2.716;2024-03-07T05:02:50;48;40;
46094;PMS5003;31832;50.746;-2.716;2024-03-07T05:05:16;46;45;
46094;PMS5003;31832;50.746;-2.716;2024-03-07T05:07:41;42;39;
46094;PMS5003;31832;50.746;-2.716;2024-03-07T05:10:07;46;43;
46094;PMS5003;31832;50.746;-2.716;2024-03-07T05:12:33;49;44;
46094;PMS5003;31832;50.746;-2.716;2024-03-07T05:14:57;44;35;
46094;PMS5003;31832;50.746;-2.716;2024-03-07T05:17:23;46;41;
46094;PMS5003;31832;50.746;-2.716;2024-03-07T05:19:48;49;45;
46094;PMS5003;31832;50.746;-2.716;2024-03-07T05:22:13;43;38;
46094;PMS5003;31832;50.746;-2.716;2024-03-07T05:24:39;49;42;
46094;PMS5003;31832;50.746;-2.716;2024-03-07T05:27:04;47;42;
46094;PMS5003;31832;50.746;-2.716;2024-03-07T05:29:30;43;38;
46094;PMS5003;31832;50.746;-2.716;2024-03-07T05:31:55;47;41;
46094;PMS5003;31832;50.746;-2.716;2024-03-07T05:34:21;48;43;
46094;PMS5003;31832;50.746;-2.716;2024-03-07T05:36:46;49;46;
46094;PMS5003;31832;50.746;-2.716;2024-03-07T05:39:12;46;42;
46094;PMS5003;31832;50.746;-2.716;2024-03-07T05:41:38;49;40;
46094;PMS5003;31832;50.746;-2.716;2024-03-07T05:44:03;44;40;
46094;PMS5003;31832;50.746;-2.716;2024-03-07T05:46:29;46;42;
46094;PMS5003;31832;50.746;-2.716;2024-03-07T05:48:54;45;43;
46094;PMS5003;31832;50.746;-2.716;2024-03-07T05:51:20;42;38;
46094;PMS5003;31832;50.746;-2.716;2024-03-07T05:53:45;54;40;
46094;PMS5003;31832;50.746;-2.716;2024-03-07T05:56:10;45;40;
46094;PMS5003;31832;50.746;-2.716;2024-03-07T05:58:35;47;41;
46094;PMS5003;31832;50.746;-2.716;2024-03-07T06:01:00;42;39;
46094;PMS5003;31832;50.746;-2.716;2024-03-07T06:03:26;48;43;
46094;PMS5003;31832;50.746;-2.716;2024-03-07T06:05:51;42;36;
46094;PMS5003;31832;50.746;-2.716;2024-03-07T06:08:16;43;38;
46094;PMS5003;31832;50.746;-2.716;2024-03-07T06:10:41;46;40;
46094;PMS5003;31832;50.746;-2.716;2024-03-07T06:13:07;46;43;
46094;PMS5003;31832;50.746;-2.716;2024-03-07T06:15:32;44;38;
46094;PMS5003;31832;50.746;-2.716;2024-03-07T06:17:58;45;39;
46094;PMS5003;31832;50.746;-2.716;2024-03-07T06:20:23;41;38;
46094;PMS5003;31832;50.746;-2.716;2024-03-07T06:22:48;45;41;
46094;PMS5003;31832;50.746;-2.716;2024-03-07T06:25:13;40;36;
46094;PMS5003;31832;50.746;-2.716;2024-03-07T06:27:39;40;33;
46094;PMS5003;31832;50.746;-2.716;2024-03-07T06:30:05;43;38;
46094;PMS5003;31832;50.746;-2.716;2024-03-07T06:32:30;41;35;
46094;PMS5003;31832;50.746;-2.716;2024-03-07T06:34:56;38;34;
46094;PMS5003;31832;50.746;-2.716;2024-03-07T06:37:21;34;31;
46094;PMS5003;31832;50.746;-2.716;2024-03-07T06:39:46;36;36;
46094;PMS5003;31832;50.746;-2.716;2024-03-07T06:42:12;38;36;
46094;PMS5003;31832;50.746;-2.716;2024-03-07T06:44:37;38;37;
46094;PMS5003;31832;50.746;-2.716;2024-03-07T06:47:03;39;33;
46094;PMS5003;31832;50.746;-2.716;2024-03-07T06:49:30;35;34;
46094;PMS5003;31832;50.746;-2.716;2024-03-07T06:51:54;38;34;
46094;PMS5003;31832;50.746;-2.716;2024-03-07T06:54:20;39;36;
46094;PMS5003;31832;50.746;-2.716;2024-03-07T06:56:45;36;33;
46094;PMS5003;31832;50.746;-2.716;2024-03-07T06:59:11;33;32;
46094;PMS5003;31832;50.746;-2.716;2024-03-07T07:01:37;37;36;
46094;PMS5003;31832;50.746;-2.716;2024-03-07T07:04:02;36;33;
46094;PMS5003;31832;50.746;-2.716;2024-03-07T07:06:28;37;34;
46094;PMS5003;31832;50.746;-2.716;2024-03-07T07:08:54;35;32;
46094;PMS5003;31832;50.746;-2.716;2024-03-07T07:11:19;40;36;
46094;PMS5003;31832;50.746;-2.716;2024-03-07T07:13:44;33;30;
46094;PMS5003;31832;50.746;-2.716;2024-03-07T07:16:10;39;34;
46094;PMS5003;31832;50.746;-2.716;2024-03-07T07:18:36;39;34;
46094;PMS5003;31832;50.746;-2.716;2024-03-07T07:21:01;39;35;
46094;PMS5003;31832;50.746;-2.716;2024-03-07T07:23:26;42;38;
46094;PMS5003;31832;50.746;-2.716;2024-03-07T07:25:52;41;38;
46094;PMS5003;31832;50.746;-2.716;2024-03-07T07:28:18;41;39;
46094;PMS5003;31832;50.746;-2.716;2024-03-07T07:30:43;45;39;
46094;PMS5003;31832;50.746;-2.716;2024-03-07T07:33:09;46;37;
46094;PMS5003;31832;50.746;-2.716;2024-03-07T07:35:34;43;37;
46094;PMS5003;31832;50.746;-2.716;2024-03-07T07:38:00;38;38;
46094;PMS5003;31832;50.746;-2.716;2024-03-07T07:40:26;41;39;
46094;PMS5003;31832;50.746;-2.716;2024-03-07T07:42:52;39;38;
46094;PMS5003;31832;50.746;-2.716;2024-03-07T07:45:18;41;39;
46094;PMS5003;31832;50.746;-2.716;2024-03-07T07:47:44;38;36;
46094;PMS5003;31832;50.746;-2.716;2024-03-07T07:50:10;37;36;
46094;PMS5003;31832;50.746;-2.716;2024-03-07T07:52:41;39;38;
46094;PMS5003;31832;50.746;-2.716;2024-03-07T07:55:00;44;42;
46094;PMS5003;31832;50.746;-2.716;2024-03-07T07:57:25;48;41;
46094;PMS5003;31832;50.746;-2.716;2024-03-07T07:59:50;46;40;
46094;PMS5003;31832;50.746;-2.716;2024-03-07T08:02:15;45;44;
46094;PMS5003;31832;50.746;-2.716;2024-03-07T08:04:41;41;40;
46094;PMS5003;31832;50.746;-2.716;2024-03-07T08:07:06;42;38;
46094;PMS5003;31832;50.746;-2.716;2024-03-07T08:09:32;46;44;
46094;PMS5003;31832;50.746;-2.716;2024-03-07T08:11:58;45;43;
46094;PMS5003;31832;50.746;-2.716;2024-03-07T08:14:23;47;43;
46094;PMS5003;31832;50.746;-2.716;2024-03-07T08:16:49;51;46;
46094;PMS5003;31832;50.746;-2.716;2024-03-07T08:19:15;48;42;
46094;PMS5003;31832;50.746;-2.716;2024-03-07T08:21:40;44;43;
46094;PMS5003;31832;50.746;-2.716;2024-03-07T08:24:06;47;44;
46094;PMS5003;31832;50.746;-2.716;2024-03-07T08:26:32;48;46;
46094;PMS5003;31832;50.746;-2.716;2024-03-07T08:28:57;47;43;
46094;PMS5003;31832;50.746;-2.716;2024-03-07T08:31:23;51;44;
46094;PMS5003;31832;50.746;-2.716;2024-03-07T08:33:49;56;48;
46094;PMS5003;31832;50.746;-2.716;2024-03-07T08:36:14;47;40;
46094;PMS5003;31832;50.746;-2.716;2024-03-07T08:38:40;41;40;
46094;PMS5003;31832;50.746;-2.716;2024-03-07T08:41:05;52;44;
46094;PMS5003;31832;50.746;-2.716;2024-03-07T08:43:30;46;41;
46094;PMS5003;31832;50.746;-2.716;2024-03-07T08:45:56;48;46;
46094;PMS5003;31832;50.746;-2.716;2024-03-07T08:48:21;52;48;
46094;PMS5003;31832;50.746;-2.716;2024-03-07T08:50:46;56;48;
46094;PMS5003;31832;50.746;-2.716;2024-03-07T08:53:12;46;45;
46094;PMS5003;31832;50.746;-2.716;2024-03-07T08:55:37;52;46;
46094;PMS5003;31832;50.746;-2.716;2024-03-07T08:58:03;45;42;
46094;PMS5003;31832;50.746;-2.716;2024-03-07T09:00:28;45;41;
46094;PMS5003;31832;50.746;-2.716;2024-03-07T09:02:54;43;40;
46094;PMS5003;31832;50.746;-2.716;2024-03-07T09:05:20;48;43;
46094;PMS5003;31832;50.746;-2.716;2024-03-07T09:07:45;51;43;
46094;PMS5003;31832;50.746;-2.716;2024-03-07T09:10:11;51;49;
46094;PMS5003;31832;50.746;-2.716;2024-03-07T09:12:36;52;44;
46094;PMS5003;31832;50.746;-2.716;2024-03-07T09:15:02;47;42;
46094;PMS5003;31832;50.746;-2.716;2024-03-07T09:17:27;50;48;
46094;PMS5003;31832;50.746;-2.716;2024-03-07T09:19:52;48;42;
46094;PMS5003;31832;50.746;-2.716;2024-03-07T09:22:18;46;43;
46094;PMS5003;31832;50.746;-2.716;2024-03-07T09:24:43;50;43;
46094;PMS5003;31832;50.746;-2.716;2024-03-07T09:27:08;43;40;
46094;PMS5003;31832;50.746;-2.716;2024-03-07T09:29:34;47;43;
46094;PMS5003;31832;50.746;-2.716;2024-03-07T09:31:59;42;39;
46094;PMS5003;31832;50.746;-2.716;2024-03-07T09:34:24;43;42;
46094;PMS5003;31832;50.746;-2.716;2024-03-07T09:36:50;42;42;
46094;PMS5003;31832;50.746;-2.716;2024-03-07T09:39:15;39;35;
46094;PMS5003;31832;50.746;-2.716;2024-03-07T09:41:41;43;40;
46094;PMS5003;31832;50.746;-2.716;2024-03-07T09:44:06;41;34;
46094;PMS5003;31832;50.746;-2.716;2024-03-07T09:46:32;37;34;
46094;PMS5003;31832;50.746;-2.716;2024-03-07T09:48:57;37;35;
46094;PMS5003;31832;50.746;-2.716;2024-03-07T09:51:22;37;36;
46094;PMS5003;31832;50.746;-2.716;2024-03-07T09:53:48;37;35;
46094;PMS5003;31832;50.746;-2.716;2024-03-07T09:56:13;39;37;
46094;PMS5003;31832;50.746;-2.716;2024-03-07T09:58:39;38;33;
46094;PMS5003;31832;50.746;-2.716;2024-03-07T10:01:05;32;32;
46094;PMS5003;31832;50.746;-2.716;2024-03-07T10:03:30;37;36;
46094;PMS5003;31832;50.746;-2.716;2024-03-07T10:05:55;38;33;
46094;PMS5003;31832;50.746;-2.716;2024-03-07T10:08:21;35;32;
46094;PMS5003;31832;50.746;-2.716;2024-03-07T10:10:46;34;32;
46094;PMS5003;31832;50.746;-2.716;2024-03-07T10:13:12;31;29;
46094;PMS5003;31832;50.746;-2.716;2024-03-07T10:15:38;31;29;
46094;PMS5003;31832;50.746;-2.716;2024-03-07T10:18:06;28;27;
46094;PMS5003;31832;50.746;-2.716;2024-03-07T10:20:28;30;29;
46094;PMS5003;31832;50.746;-2.716;2024-03-07T10:22:53;34;30;
46094;PMS5003;31832;50.746;-2.716;2024-03-07T10:25:20;27;26;
46094;PMS5003;31832;50.746;-2.716;2024-03-07T10:27:45;27;24;
46094;PMS5003;31832;50.746;-2.716;2024-03-07T10:30:10;26;25;
46094;PMS5003;31832;50.746;-2.716;2024-03-07T10:32:36;28;27;
46094;PMS5003;31832;50.746;-2.716;2024-03-07T10:35:01;22;21;
46094;PMS5003;31832;50.746;-2.716;2024-03-07T10:37:26;26;24;
46094;PMS5003;31832;50.746;-2.716;2024-03-07T10:39:52;30;21;
46094;PMS5003;31832;50.746;-2.716;2024-03-07T10:42:17;23;23;
46094;PMS5003;31832;50.746;-2.716;2024-03-07T10:44:43;22;21;
46094;PMS5003;31832;50.746;-2.716;2024-03-07T10:47:08;21;20;
46094;PMS5003;31832;50.746;-2.716;2024-03-07T10:49:33;21;20;
46094;PMS5003;31832;50.746;-2.716;2024-03-07T10:52:01;18;17;
46094;PMS5003;31832;50.746;-2.716;2024-03-07T10:54:27;18;17;
46094;PMS5003;31832;50.746;-2.716;2024-03-07T10:56:55;21;19;
46094;PMS5003;31832;50.746;-2.716;2024-03-07T10:59:16;14;13;
46094;PMS5003;31832;50.746;-2.716;2024-03-07T11:01:46;21;18;
46094;PMS5003;31832;50.746;-2.716;2024-03-07T11:04:06;19;16;
46094;PMS5003;31832;50.746;-2.716;2024-03-07T11:06:32;23;22;
46094;PMS5003;31832;50.746;-2.716;2024-03-07T11:08:57;19;18;
46094;PMS5003;31832;50.746;-2.716;2024-03-07T11:11:23;24;20;
46094;PMS5003;31832;50.746;-2.716;2024-03-07T11:13:49;24;20;
46094;PMS5003;31832;50.746;-2.716;2024-03-07T11:16:15;24;24;
46094;PMS5003;31832;50.746;-2.716;2024-03-07T11:18:39;26;25;
46094;PMS5003;31832;50.746;-2.716;2024-03-07T11:21:04;28;25;
46094;PMS5003;31832;50.746;-2.716;2024-03-07T11:23:30;24;22;
46094;PMS5003;31832;50.746;-2.716;2024-03-07T11:25:55;28;23;
46094;PMS5003;31832;50.746;-2.716;2024-03-07T11:28:27;29;25;
46094;PMS5003;31832;50.746;-2.716;2024-03-07T11:30:46;21;19;
46094;PMS5003;31832;50.746;-2.716;2024-03-07T11:33:11;22;22;
46094;PMS5003;31832;50.746;-2.716;2024-03-07T11:35:36;25;22;
46094;PMS5003;31832;50.746;-2.716;2024-03-07T11:38:01;19;17;
46094;PMS5003;31832;50.746;-2.716;2024-03-07T11:42:53;21;19;
46094;PMS5003;31832;50.746;-2.716;2024-03-07T11:45:18;19;17;
46094;PMS5003;31832;50.746;-2.716;2024-03-07T11:47:43;17;16;
46094;PMS5003;31832;50.746;-2.716;2024-03-07T11:50:08;18;15;
46094;PMS5003;31832;50.746;-2.716;2024-03-07T11:52:33;17;15;
46094;PMS5003;31832;50.746;-2.716;2024-03-07T11:54:59;18;17;
46094;PMS5003;31832;50.746;-2.716;2024-03-07T11:57:25;17;17;
46094;PMS5003;31832;50.746;-2.716;2024-03-07T11:59:50;15;13;
46094;PMS5003;31832;50.746;-2.716;2024-03-07T12:02:15;15;15;
46094;PMS5003;31832;50.746;-2.716;2024-03-07T12:04:41;13;12;
46094;PMS5003;31832;50.746;-2.716;2024-03-07T12:07:06;18;15;
46094;PMS5003;31832;50.746;-2.716;2024-03-07T12:09:31;19;16;
46094;PMS5003;31832;50.746;-2.716;2024-03-07T12:11:57;17;16;
46094;PMS5003;31832;50.746;-2.716;2024-03-07T12:14:22;17;17;
46094;PMS5003;31832;50.746;-2.716;2024-03-07T12:16:47;13;13;
46094;PMS5003;31832;50.746;-2.716;2024-03-07T12:19:12;16;15;
46094;PMS5003;31832;50.746;-2.716;2024-03-07T12:21:38;14;13;
46094;PMS5003;31832;50.746;-2.716;2024-03-07T12:26:29;15;14;
46094;PMS5003;31832;50.746;-2.716;2024-03-07T12:28:54;13;12;
46094;PMS5003;31832;50.746;-2.716;2024-03-07T12:31:20;13;13;
46094;PMS5003;31832;50.746;-2.716;2024-03-07T12:33:45;9;9;
46094;PMS5003;31832;50.746;-2.716;2024-03-07T12:36:10;11;11;
46094;PMS5003;31832;50.746;-2.716;2024-03-07T12:38:36;11;8;
46094;PMS5003;31832;50.746;-2.716;2024-03-07T12:41:02;9;9;
46094;PMS5003;31832;50.746;-2.716;2024-03-07T12:43:26;8;7;
46094;PMS5003;31832;50.746;-2.716;2024-03-07T12:45:52;9;8;
46094;PMS5003;31832;50.746;-2.716;2024-03-07T12:48:17;9;9;
46094;PMS5003;31832;50.746;-2.716;2024-03-07T12:50:45;7;7;
46094;PMS5003;31832;50.746;-2.716;2024-03-07T12:53:08;7;7;
46094;PMS5003;31832;50.746;-2.716;2024-03-07T12:55:33;8;6;
46094;PMS5003;31832;50.746;-2.716;2024-03-07T12:57:59;7;7;
46094;PMS5003;31832;50.746;-2.716;2024-03-07T13:00:24;11;9;
46094;PMS5003;31832;50.746;-2.716;2024-03-07T13:02:49;9;9;
46094;PMS5003;31832;50.746;-2.716;2024-03-07T13:05:15;11;10;
46094;PMS5003;31832;50.746;-2.716;2024-03-07T13:07:40;10;9;
46094;PMS5003;31832;50.746;-2.716;2024-03-07T13:10:05;9;7;
46094;PMS5003;31832;50.746;-2.716;2024-03-07T13:12:30;8;7;
46094;PMS5003;31832;50.746;-2.716;2024-03-07T13:14:56;8;7;
46094;PMS5003;31832;50.746;-2.716;2024-03-07T13:17:22;6;6;
46094;PMS5003;31832;50.746;-2.716;2024-03-07T13:19:47;7;7;
46094;PMS5003;31832;50.746;-2.716;2024-03-07T13:22:13;6;6;
46094;PMS5003;31832;50.746;-2.716;2024-03-07T13:24:38;8;5;
46094;PMS5003;31832;50.746;-2.716;2024-03-07T13:27:03;8;7;
46094;PMS5003;31832;50.746;-2.716;2024-03-07T13:29:29;8;8;
46094;PMS5003;31832;50.746;-2.716;2024-03-07T13:31:54;7;6;
46094;PMS5003;31832;50.746;-2.716;2024-03-07T13:34:19;5;5;
46094;PMS5003;31832;50.746;-2.716;2024-03-07T13:39:09;9;7;
46094;PMS5003;31832;50.746;-2.716;2024-03-07T13:41:34;7;5;
46094;PMS5003;31832;50.746;-2.716;2024-03-07T13:44:00;6;5;
46094;PMS5003;31832;50.746;-2.716;2024-03-07T13:46:25;5;5;
46094;PMS5003;31832;50.746;-2.716;2024-03-07T13:48:50;5;4;
46094;PMS5003;31832;50.746;-2.716;2024-03-07T13:51:16;6;6;
46094;PMS5003;31832;50.746;-2.716;2024-03-07T13:53:41;6;6;
46094;PMS5003;31832;50.746;-2.716;2024-03-07T13:58:36;7;7;
46094;PMS5003;31832;50.746;-2.716;2024-03-07T14:00:59;10;9;
46094;PMS5003;31832;50.746;-2.716;2024-03-07T14:03:27;6;6;
46094;PMS5003;31832;50.746;-2.716;2024-03-07T14:05:54;7;6;
46094;PMS5003;31832;50.746;-2.716;2024-03-07T14:08:22;7;7;
46094;PMS5003;31832;50.746;-2.716;2024-03-07T14:10:44;7;7;
46094;PMS5003;31832;50.746;-2.716;2024-03-07T14:13:08;9;9;
46094;PMS5003;31832;50.746;-2.716;2024-03-07T14:17:59;7;7;
46094;PMS5003;31832;50.746;-2.716;2024-03-07T14:22:51;4;3;
46094;PMS5003;31832;50.746;-2.716;2024-03-07T14:25:17;6;6;
46094;PMS5003;31832;50.746;-2.716;2024-03-07T14:27:35;7;7;
46094;PMS5003;31832;50.746;-2.716;2024-03-07T14:32:25;4;4;
46094;PMS5003;31832;50.746;-2.716;2024-03-07T14:34:56;7;5;
46094;PMS5003;31832;50.746;-2.716;2024-03-07T14:37:21;5;4;
46094;PMS5003;31832;50.746;-2.716;2024-03-07T14:39:41;7;4;
46094;PMS5003;31832;50.746;-2.716;2024-03-07T14:42:07;6;5;
46094;PMS5003;31832;50.746;-2.716;2024-03-07T14:44:31;4;4;
46094;PMS5003;31832;50.746;-2.716;2024-03-07T14:46:57;5;5;
46094;PMS5003;31832;50.746;-2.716;2024-03-07T14:49:22;5;2;
46094;PMS5003;31832;50.746;-2.716;2024-03-07T14:51:47;4;4;
46094;PMS5003;31832;50.746;-2.716;2024-03-07T14:54:12;6;5;
46094;PMS5003;31832;50.746;-2.716;2024-03-07T14:56:37;5;5;
46094;PMS5003;31832;50.746;-2.716;2024-03-07T14:59:02;6;5;
46094;PMS5003;31832;50.746;-2.716;2024-03-07T15:01:28;6;4;
46094;PMS5003;31832;50.746;-2.716;2024-03-07T15:03:53;5;5;
46094;PMS5003;31832;50.746;-2.716;2024-03-07T15:06:18;6;6;
46094;PMS5003;31832;50.746;-2.716;2024-03-07T15:08:43;7;7;
46094;PMS5003;31832;50.746;-2.716;2024-03-07T15:11:09;8;6;
46094;PMS5003;31832;50.746;-2.716;2024-03-07T15:13:33;9;6;
46094;PMS5003;31832;50.746;-2.716;2024-03-07T15:15:59;12;8;
46094;PMS5003;31832;50.746;-2.716;2024-03-07T15:18:24;14;14;
46094;PMS5003;31832;50.746;-2.716;2024-03-07T15:20:49;14;13;
46094;PMS5003;31832;50.746;-2.716;2024-03-07T15:23:15;15;14;
46094;PMS5003;31832;50.746;-2.716;2024-03-07T15:25:41;20;17;
46094;PMS5003;31832;50.746;-2.716;2024-03-07T15:28:06;25;21;
46094;PMS5003;31832;50.746;-2.716;2024-03-07T15:30:32;20;20;
46094;PMS5003;31832;50.746;-2.716;2024-03-07T15:32:58;26;24;
46094;PMS5003;31832;50.746;-2.716;2024-03-07T15:35:23;27;24;
46094;PMS5003;31832;50.746;-2.716;2024-03-07T15:37:49;34;27;
46094;PMS5003;31832;50.746;-2.716;2024-03-07T15:40:14;32;30;
46094;PMS5003;31832;50.746;-2.716;2024-03-07T15:42:39;36;28;
46094;PMS5003;31832;50.746;-2.716;2024-03-07T15:45:06;26;25;
46094;PMS5003;31832;50.746;-2.716;2024-03-07T15:47:30;33;31;
46094;PMS5003;31832;50.746;-2.716;2024-03-07T15:49:55;23;20;
46094;PMS5003;31832;50.746;-2.716;2024-03-07T15:52:21;31;23;
46094;PMS5003;31832;50.746;-2.716;2024-03-07T15:54:48;32;26;
46094;PMS5003;31832;50.746;-2.716;2024-03-07T15:57:12;27;24;
46094;PMS5003;31832;50.746;-2.716;2024-03-07T15:59:41;29;23;
46094;PMS5003;31832;50.746;-2.716;2024-03-07T16:02:03;32;31;
46094;PMS5003;31832;50.746;-2.716;2024-03-07T16:04:28;27;25;
46094;PMS5003;31832;50.746;-2.716;2024-03-07T16:09:20;25;24;
46094;PMS5003;31832;50.746;-2.716;2024-03-07T16:11:44;24;20;
46094;PMS5003;31832;50.746;-2.716;2024-03-07T16:14:10;23;23;